createdAt,value
2019-06-26T00:00:18.852Z,99.90
2019-06-26T00:02:48.386Z,99.90
2019-06-26T00:05:17.185Z,99.90
2019-06-26T00:07:45.882Z,99.90
2019-06-26T00:10:14.768Z,99.90
2019-06-26T00:12:43.967Z,99.90
2019-06-26T00:15:12.799Z,99.90
2019-06-26T00:17:41.417Z,99.90
2019-06-26T00:20:11.230Z,99.90
2019-06-26T00:22:39.875Z,99.90
2019-06-26T00:25:09.793Z,99.90
2019-06-26T00:27:38.440Z,99.90
2019-06-26T00:30:08.076Z,99.90
2019-06-26T00:32:36.718Z,99.90
2019-06-26T00:35:06.162Z,99.90
2019-06-26T00:37:34.852Z,99.90
2019-06-26T00:40:04.754Z,99.90
2019-06-26T00:42:33.306Z,99.90
2019-06-26T00:45:01.910Z,99.90
2019-06-26T00:47:31.152Z,99.90
2019-06-26T00:49:59.699Z,99.90
2019-06-26T00:52:28.340Z,99.90
2019-06-26T00:54:56.944Z,99.90
2019-06-26T00:57:25.622Z,99.90
2019-06-26T00:59:54.236Z,99.90
2019-06-26T01:02:22.801Z,99.90
2019-06-26T01:04:55.688Z,99.90
2019-06-26T01:07:24.373Z,99.90
2019-06-26T01:09:53.385Z,99.90
2019-06-26T01:12:22.973Z,99.90
2019-06-26T01:14:51.677Z,99.90
2019-06-26T01:17:20.247Z,99.90
2019-06-26T01:19:48.885Z,99.90
2019-06-26T01:22:17.503Z,99.90
2019-06-26T01:24:46.075Z,99.90
2019-06-26T01:27:14.618Z,99.90
2019-06-26T01:29:43.316Z,99.90
2019-06-26T01:32:11.810Z,99.90
2019-06-26T01:34:40.378Z,99.90
2019-06-26T01:37:09.000Z,99.90
2019-06-26T01:39:37.594Z,99.90
2019-06-26T01:42:06.311Z,99.90
2019-06-26T01:44:36.391Z,99.90
2019-06-26T01:47:05.030Z,99.90
2019-06-26T01:49:34.054Z,99.90
2019-06-26T01:52:02.768Z,99.90
2019-06-26T01:54:33.361Z,99.90
2019-06-26T01:57:02.021Z,99.90
2019-06-26T01:59:30.581Z,99.90
2019-06-26T02:01:59.152Z,99.90
2019-06-26T02:04:27.874Z,99.90
2019-06-26T02:06:56.427Z,99.90
2019-06-26T02:09:25.051Z,99.90
2019-06-26T02:11:54.676Z,99.90
2019-06-26T02:14:31.072Z,99.90
2019-06-26T02:16:53.633Z,99.90
2019-06-26T02:19:22.351Z,99.90
2019-06-26T02:21:51.060Z,99.90
2019-06-26T02:24:19.722Z,99.90
2019-06-26T02:26:48.333Z,99.90
2019-06-26T02:29:16.919Z,99.90
2019-06-26T02:31:45.571Z,99.90
2019-06-26T02:34:14.472Z,99.90
2019-06-26T02:36:43.022Z,99.90
2019-06-26T02:39:11.703Z,99.90
2019-06-26T02:41:40.394Z,99.90
2019-06-26T02:44:09.052Z,99.90
2019-06-26T02:46:37.677Z,99.90
2019-06-26T02:49:06.280Z,99.90
2019-06-26T02:51:35.035Z,99.90
2019-06-26T02:54:03.844Z,99.90
2019-06-26T02:56:32.403Z,99.90
2019-06-26T02:59:00.978Z,99.90
2019-06-26T03:01:29.728Z,99.90
2019-06-26T03:03:58.406Z,99.90
2019-06-26T03:06:27.098Z,99.90
2019-06-26T03:08:55.817Z,99.90
2019-06-26T03:11:24.590Z,99.90
2019-06-26T03:13:54.430Z,99.90
2019-06-26T03:16:42.196Z,99.90
2019-06-26T03:19:10.807Z,99.90
2019-06-26T03:21:39.362Z,99.90
2019-06-26T03:24:08.003Z,99.90
2019-06-26T03:26:36.622Z,99.90
2019-06-26T03:29:05.305Z,99.90
2019-06-26T03:31:33.939Z,99.90
2019-06-26T03:34:02.574Z,99.90
2019-06-26T03:36:31.206Z,99.90
2019-06-26T03:38:59.774Z,99.90
2019-06-26T03:41:28.333Z,99.90
2019-06-26T03:43:56.903Z,99.90
2019-06-26T03:46:28.276Z,99.90
2019-06-26T03:48:56.884Z,99.90
2019-06-26T03:51:26.316Z,99.90
2019-06-26T03:53:54.885Z,99.90
2019-06-26T03:56:23.433Z,99.90
2019-06-26T03:58:52.111Z,99.90
2019-06-26T04:01:20.703Z,99.90
2019-06-26T04:03:57.300Z,99.90
2019-06-26T04:06:26.027Z,99.90
2019-06-26T04:08:54.529Z,99.90
2019-06-26T04:11:23.209Z,99.90
2019-06-26T04:13:51.783Z,99.90
2019-06-26T04:16:23.311Z,99.90
2019-06-26T04:18:52.369Z,99.90
2019-06-26T04:21:20.993Z,99.90
2019-06-26T04:23:49.638Z,99.90
2019-06-26T04:26:18.214Z,99.90
2019-06-26T04:28:46.773Z,99.90
2019-06-26T04:31:21.382Z,99.90
2019-06-26T04:33:50.090Z,99.90
2019-06-26T04:36:18.712Z,99.90
2019-06-26T04:38:47.313Z,99.90
2019-06-26T04:41:16.252Z,99.90
2019-06-26T04:43:44.884Z,99.90
2019-06-26T04:46:13.551Z,99.90
2019-06-26T04:48:42.188Z,99.90
2019-06-26T04:51:10.758Z,99.90
2019-06-26T04:53:39.373Z,99.90
2019-06-26T04:56:08.111Z,99.90
2019-06-26T04:58:40.995Z,99.90
2019-06-26T05:01:09.597Z,99.90
2019-06-26T05:03:38.260Z,99.90
2019-06-26T05:06:06.940Z,99.90
2019-06-26T05:08:35.515Z,99.90
2019-06-26T05:11:04.451Z,99.90
2019-06-26T05:13:33.177Z,99.90
2019-06-26T05:16:14.436Z,99.90
2019-06-26T05:18:32.097Z,99.90
2019-06-26T05:21:00.791Z,99.90
2019-06-26T05:23:29.437Z,99.90
2019-06-26T05:26:02.306Z,99.90
2019-06-26T05:28:30.978Z,99.90
2019-06-26T05:31:00.248Z,99.90
2019-06-26T05:33:28.914Z,99.90
2019-06-26T05:35:57.440Z,99.90
2019-06-26T05:38:26.101Z,99.90
2019-06-26T05:40:54.709Z,99.90
2019-06-26T05:43:23.446Z,99.90
2019-06-26T05:45:52.081Z,99.90
2019-06-26T05:48:20.870Z,99.90
2019-06-26T05:50:49.518Z,99.90
2019-06-26T05:53:18.081Z,99.90
2019-06-26T05:55:46.693Z,99.90
2019-06-26T05:58:15.335Z,99.90
2019-06-26T06:00:44.050Z,99.90
2019-06-26T06:03:12.582Z,99.90
2019-06-26T06:05:41.201Z,99.90
2019-06-26T06:08:09.783Z,99.90
2019-06-26T06:10:39.410Z,99.90
2019-06-26T06:13:08.146Z,99.90
2019-06-26T06:15:36.765Z,99.90
2019-06-26T06:18:05.539Z,99.90
2019-06-26T06:20:40.414Z,99.90
2019-06-26T06:23:08.985Z,99.90
2019-06-26T06:25:37.524Z,99.90
2019-06-26T06:28:07.070Z,99.90
2019-06-26T06:30:35.792Z,99.90
2019-06-26T06:33:04.449Z,99.90
2019-06-26T06:35:33.079Z,99.90
2019-06-26T06:38:01.636Z,99.90
2019-06-26T06:40:30.295Z,99.90
2019-06-26T06:42:58.917Z,99.90
2019-06-26T06:45:27.719Z,99.90
2019-06-26T06:47:56.417Z,99.90
2019-06-26T06:50:25.057Z,99.90
2019-06-26T06:52:53.762Z,99.90
2019-06-26T06:55:23.097Z,99.90
2019-06-26T06:57:51.796Z,99.90
2019-06-26T07:00:20.607Z,99.90
2019-06-26T07:02:50.997Z,99.90
2019-06-26T07:05:20.033Z,99.90
2019-06-26T07:07:48.621Z,99.90
2019-06-26T07:10:17.362Z,99.90
2019-06-26T07:12:46.050Z,99.90
2019-06-26T07:15:16.178Z,99.90
2019-06-26T07:17:45.266Z,99.90
2019-06-26T07:20:14.584Z,99.90
2019-06-26T07:22:43.132Z,99.90
2019-06-26T07:25:13.344Z,99.90
2019-06-26T07:27:41.981Z,99.90
2019-06-26T07:30:11.679Z,99.90
2019-06-26T07:32:41.100Z,99.90
2019-06-26T07:35:09.973Z,99.90
2019-06-26T07:37:38.484Z,99.90
2019-06-26T07:40:09.033Z,99.90
2019-06-26T07:42:37.696Z,99.90
2019-06-26T07:45:07.233Z,99.90
2019-06-26T07:47:43.035Z,99.90
2019-06-26T07:50:07.221Z,99.90
2019-06-26T07:52:35.917Z,99.90
2019-06-26T07:55:06.435Z,99.90
2019-06-26T07:57:35.088Z,99.90
2019-06-26T08:00:05.027Z,99.90
2019-06-26T08:02:33.679Z,99.90
2019-06-26T08:05:02.410Z,99.90
2019-06-26T08:07:31.265Z,99.90
2019-06-26T08:09:59.885Z,99.90
2019-06-26T08:12:28.503Z,99.90
2019-06-26T08:14:57.219Z,99.90
2019-06-26T08:17:28.502Z,99.90
2019-06-26T08:19:57.125Z,99.90
2019-06-26T08:22:25.733Z,99.90
2019-06-26T08:24:55.955Z,99.90
2019-06-26T08:27:24.499Z,99.90
2019-06-26T08:29:53.271Z,99.90
2019-06-26T08:32:21.933Z,99.90
2019-06-26T08:34:51.385Z,99.90
2019-06-26T08:37:20.078Z,99.90
2019-06-26T08:39:48.649Z,99.90
2019-06-26T08:42:18.861Z,99.90
2019-06-26T08:44:48.656Z,99.90
2019-06-26T08:47:17.264Z,99.90
2019-06-26T08:49:45.876Z,99.90
2019-06-26T08:52:15.607Z,99.90
2019-06-26T08:54:44.248Z,99.90
2019-06-26T08:57:12.788Z,99.90
2019-06-26T08:59:41.403Z,99.90
2019-06-26T09:02:09.994Z,99.90
2019-06-26T09:04:38.692Z,99.90
2019-06-26T09:07:07.305Z,99.90
2019-06-26T09:09:35.998Z,99.90
2019-06-26T09:12:04.667Z,99.90
2019-06-26T09:16:57.988Z,99.90
2019-06-26T09:19:26.597Z,99.90
2019-06-26T09:21:55.313Z,99.90
2019-06-26T09:24:24.017Z,99.90
2019-06-26T09:26:52.534Z,99.90
2019-06-26T09:29:24.135Z,99.90
2019-06-26T09:31:55.575Z,99.90
2019-06-26T09:37:03.529Z,99.90
2019-06-26T09:39:32.378Z,99.90
2019-06-26T09:42:01.000Z,99.90
2019-06-26T09:44:29.560Z,99.90
2019-06-26T09:46:58.169Z,99.90
2019-06-26T09:49:26.777Z,99.90
2019-06-26T09:51:55.364Z,99.90
2019-06-26T09:54:23.915Z,99.90
2019-06-26T09:56:52.453Z,99.90
2019-06-26T09:59:20.970Z,99.90
2019-06-26T10:01:49.632Z,99.90
2019-06-26T10:04:18.340Z,99.90
2019-06-26T10:06:46.970Z,99.90
2019-06-26T10:09:15.523Z,99.90
2019-06-26T10:11:44.246Z,99.90
2019-06-26T10:14:12.856Z,99.90
2019-06-26T10:16:41.494Z,99.90
2019-06-26T10:19:11.077Z,99.90
2019-06-26T10:21:40.439Z,99.90
2019-06-26T10:24:08.990Z,99.90
2019-06-26T10:26:37.704Z,99.90
2019-06-26T10:29:06.314Z,99.90
2019-06-26T10:31:35.026Z,99.90
2019-06-26T10:34:03.648Z,99.90
2019-06-26T10:36:32.297Z,99.90
2019-06-26T10:39:00.850Z,99.90
2019-06-26T10:41:29.513Z,99.90
2019-06-26T10:43:58.056Z,99.90
2019-06-26T10:46:27.045Z,99.90
2019-06-26T10:48:55.775Z,99.90
2019-06-26T10:51:24.308Z,99.90
2019-06-26T10:53:52.883Z,99.90
2019-06-26T10:56:21.488Z,99.50
2019-06-26T10:58:50.025Z,98.70
2019-06-26T11:01:19.282Z,98.40
2019-06-26T11:03:47.910Z,98.20
2019-06-26T11:06:16.582Z,98.80
2019-06-26T11:08:45.136Z,99.50
2019-06-26T11:11:19.712Z,99.70
2019-06-26T11:13:48.435Z,99.90
2019-06-26T11:16:17.123Z,99.80
2019-06-26T11:18:45.746Z,99.90
2019-06-26T11:21:14.455Z,99.90
2019-06-26T11:23:43.160Z,99.90
2019-06-26T11:26:11.842Z,99.90
2019-06-26T11:28:40.517Z,99.90
2019-06-26T11:31:09.038Z,99.90
2019-06-26T11:33:37.681Z,99.90
2019-06-26T11:36:06.221Z,99.90
2019-06-26T11:38:34.805Z,99.90
2019-06-26T11:41:03.337Z,99.90
2019-06-26T11:43:31.941Z,99.90
2019-06-26T11:46:01.345Z,99.90
2019-06-26T11:48:29.918Z,99.90
2019-06-26T11:50:58.631Z,99.90
2019-06-26T11:53:27.335Z,99.90
2019-06-26T11:55:56.062Z,99.90
2019-06-26T11:58:24.934Z,99.90
2019-06-26T12:00:53.966Z,99.90
2019-06-26T12:03:22.597Z,99.90
2019-06-26T12:05:51.330Z,99.90
2019-06-26T12:08:20.024Z,99.50
2019-06-26T12:10:48.709Z,99.90
2019-06-26T12:13:17.317Z,99.90
2019-06-26T12:15:45.908Z,99.90
2019-06-26T12:18:14.455Z,99.90
2019-06-26T12:20:43.057Z,99.90
2019-06-26T12:23:11.601Z,99.90
2019-06-26T12:25:41.893Z,99.90
2019-06-26T12:28:10.555Z,99.90
2019-06-26T12:30:39.281Z,99.90
2019-06-26T12:33:27.260Z,99.90
2019-06-26T12:35:55.840Z,99.90
2019-06-26T12:38:24.404Z,99.90
2019-06-26T12:40:53.282Z,99.90
2019-06-26T12:43:21.857Z,99.90
2019-06-26T12:45:50.618Z,99.90
2019-06-26T12:48:19.361Z,99.90
2019-06-26T12:50:47.941Z,99.90
2019-06-26T12:53:16.598Z,99.90
2019-06-26T12:55:45.239Z,99.90
2019-06-26T12:58:19.671Z,99.90
2019-06-26T13:00:46.533Z,99.90
2019-06-26T13:03:15.152Z,99.90
2019-06-26T13:05:43.906Z,99.90
2019-06-26T13:08:12.494Z,99.90
2019-06-26T13:10:49.444Z,99.90
2019-06-26T13:13:11.407Z,99.90
2019-06-26T13:15:40.037Z,99.90
2019-06-26T13:18:08.703Z,99.90
2019-06-26T13:20:51.546Z,99.90
2019-06-26T13:23:07.526Z,99.90
2019-06-26T13:25:36.266Z,99.90
2019-06-26T13:28:05.146Z,99.90
2019-06-26T13:30:39.163Z,99.90
2019-06-26T13:33:08.085Z,99.90
2019-06-26T13:35:36.781Z,99.90
2019-06-26T13:38:05.569Z,99.90
2019-06-26T13:40:34.267Z,99.90
2019-06-26T13:43:02.940Z,99.90
2019-06-26T13:45:31.602Z,99.90
2019-06-26T13:48:00.280Z,99.90
2019-06-26T13:50:28.900Z,99.90
2019-06-26T13:52:57.638Z,99.90
2019-06-26T13:55:26.221Z,99.90
2019-06-26T13:57:54.859Z,99.90
2019-06-26T14:00:24.465Z,99.90
2019-06-26T14:02:53.057Z,99.90
2019-06-26T14:05:21.711Z,99.90
2019-06-26T14:07:52.716Z,99.90
2019-06-26T14:10:22.482Z,99.90
2019-06-26T14:12:51.108Z,99.90
2019-06-26T14:15:20.358Z,99.90
2019-06-26T14:17:49.338Z,99.90
2019-06-26T14:20:18.219Z,99.90
2019-06-26T14:22:47.033Z,99.90
2019-06-26T14:25:16.135Z,99.90
2019-06-26T14:27:44.847Z,99.90
2019-06-26T14:30:13.542Z,99.90
2019-06-26T14:32:42.145Z,99.90
2019-06-26T14:35:11.029Z,99.90
2019-06-26T14:37:39.650Z,99.90
2019-06-26T14:40:08.547Z,99.90
2019-06-26T14:42:37.186Z,99.90
2019-06-26T14:45:09.681Z,99.90
2019-06-26T14:47:38.321Z,99.90
2019-06-26T14:50:07.623Z,99.90
2019-06-26T14:52:36.394Z,99.90
2019-06-26T14:55:08.308Z,99.90
2019-06-26T14:57:37.000Z,99.90
2019-06-26T15:00:07.217Z,99.90
2019-06-26T15:02:35.844Z,99.90
2019-06-26T15:05:08.670Z,99.90
2019-06-26T15:07:37.353Z,99.90
2019-06-26T15:10:07.535Z,99.90
2019-06-26T15:12:36.233Z,99.90
2019-06-26T15:15:06.500Z,99.90
2019-06-26T15:20:11.471Z,99.90
2019-06-26T15:22:40.104Z,99.90
2019-06-26T15:25:09.069Z,99.90
2019-06-26T15:30:20.196Z,99.90
2019-06-26T15:32:48.812Z,99.90
2019-06-26T15:35:17.706Z,99.90
2019-06-26T15:37:47.370Z,99.90
2019-06-26T15:40:16.862Z,99.90
2019-06-26T15:42:48.851Z,99.90
2019-06-26T15:45:15.820Z,99.90
2019-06-26T15:47:44.533Z,99.90
2019-06-26T15:50:13.345Z,99.90
2019-06-26T15:52:42.057Z,99.90
2019-06-26T15:55:10.707Z,99.90
2019-06-26T15:57:39.388Z,99.90
2019-06-26T16:00:09.005Z,99.90
2019-06-26T16:02:37.649Z,99.90
2019-06-26T16:05:09.545Z,99.90
2019-06-26T16:07:38.320Z,99.90
2019-06-26T16:10:07.830Z,99.90
2019-06-26T16:12:36.550Z,99.90
2019-06-26T16:15:06.949Z,99.90
2019-06-26T16:17:49.170Z,99.90
2019-06-26T16:20:18.071Z,99.90
2019-06-26T16:22:46.632Z,99.90
2019-06-26T16:25:16.280Z,99.90
2019-06-26T16:27:44.910Z,99.90
2019-06-26T16:30:13.998Z,99.90
2019-06-26T16:32:43.852Z,99.90
2019-06-26T16:35:12.726Z,99.90
2019-06-26T16:37:42.152Z,99.90
2019-06-26T16:40:11.016Z,99.90
2019-06-26T16:42:39.822Z,99.90
2019-06-26T16:45:29.241Z,99.90
2019-06-26T16:47:57.803Z,99.90
2019-06-26T16:50:26.496Z,99.90
2019-06-26T16:52:55.276Z,99.90
2019-06-26T16:55:23.899Z,99.90
2019-06-26T16:57:52.614Z,99.90
2019-06-26T17:00:22.050Z,99.90
2019-06-26T17:02:50.689Z,99.90
2019-06-26T17:05:19.340Z,99.90
2019-06-26T17:07:47.964Z,99.90
2019-06-26T17:10:19.726Z,99.90
2019-06-26T17:12:48.201Z,99.90
2019-06-26T17:15:17.414Z,99.90
2019-06-26T17:17:46.065Z,99.90
2019-06-26T17:23:04.615Z,99.90
2019-06-26T17:25:21.429Z,99.90
2019-06-26T17:27:50.069Z,99.90
2019-06-26T17:30:18.943Z,99.90
2019-06-26T17:32:47.578Z,99.90
2019-06-26T17:35:16.289Z,99.20
2019-06-26T17:37:44.825Z,99.00
2019-06-26T17:40:15.006Z,99.00
2019-06-26T17:42:44.441Z,99.00
2019-06-26T17:45:13.462Z,98.40
2019-06-26T17:47:42.074Z,99.70
2019-06-26T17:50:11.086Z,99.80
2019-06-26T17:52:39.799Z,99.20
2019-06-26T17:55:09.130Z,99.90
2019-06-26T17:57:37.966Z,99.90
2019-06-26T18:00:08.615Z,99.90
2019-06-26T18:02:37.329Z,99.90
2019-06-26T18:05:06.238Z,99.90
2019-06-26T18:07:34.948Z,99.90
2019-06-26T18:10:06.250Z,99.90
2019-06-26T18:12:34.877Z,99.90
2019-06-26T18:15:04.647Z,99.90
2019-06-26T18:17:33.203Z,99.90
2019-06-26T18:20:04.113Z,99.90
2019-06-26T18:22:32.805Z,99.90
2019-06-26T18:25:01.369Z,99.90
2019-06-26T18:27:30.029Z,99.90
2019-06-26T18:29:58.673Z,99.90
2019-06-26T18:32:27.241Z,99.90
2019-06-26T18:34:55.877Z,99.90
2019-06-26T18:37:24.538Z,99.90
2019-06-26T18:39:53.081Z,99.90
2019-06-26T18:42:21.769Z,99.90
2019-06-26T18:44:50.491Z,99.90
2019-06-26T18:47:19.152Z,99.90
2019-06-26T18:49:47.880Z,99.90
2019-06-26T18:52:16.504Z,99.90
2019-06-26T18:54:45.163Z,99.90
2019-06-26T18:57:13.729Z,99.90
2019-06-26T18:59:51.668Z,99.90
2019-06-26T19:02:20.339Z,99.90
2019-06-26T19:04:48.996Z,99.90
2019-06-26T19:07:17.626Z,99.90
2019-06-26T19:09:46.302Z,99.90
2019-06-26T19:12:14.865Z,99.90
2019-06-26T19:14:46.065Z,99.90
2019-06-26T19:17:13.974Z,99.90
2019-06-26T19:19:42.658Z,99.90
2019-06-26T19:22:12.313Z,99.90
2019-06-26T19:24:40.869Z,99.90
2019-06-26T19:27:09.517Z,99.90
2019-06-26T19:29:38.171Z,99.90
2019-06-26T19:32:06.869Z,99.90
2019-06-26T19:34:35.610Z,99.90
2019-06-26T19:37:04.260Z,99.90
2019-06-26T19:39:32.897Z,99.90
2019-06-26T19:42:01.566Z,99.90
2019-06-26T19:44:30.106Z,99.90
2019-06-26T19:46:58.754Z,99.90
2019-06-26T19:49:27.376Z,99.90
2019-06-26T19:51:56.078Z,99.90
2019-06-26T19:54:27.845Z,99.90
2019-06-26T19:56:55.029Z,99.90
2019-06-26T19:59:25.955Z,99.90
2019-06-26T20:01:54.610Z,99.90
2019-06-26T20:04:23.423Z,99.90
2019-06-26T20:06:52.075Z,99.90
2019-06-26T20:09:20.835Z,99.90
2019-06-26T20:11:51.033Z,99.90
2019-06-26T20:14:19.641Z,99.90
2019-06-26T20:16:48.189Z,99.90
2019-06-26T20:19:16.830Z,99.90
2019-06-26T20:21:45.466Z,99.90
2019-06-26T20:24:14.407Z,99.90
2019-06-26T20:26:43.123Z,99.90
2019-06-26T20:29:11.822Z,99.90
2019-06-26T20:31:40.418Z,99.90
2019-06-26T20:34:09.014Z,99.90
2019-06-26T20:36:37.579Z,99.90
2019-06-26T20:39:06.529Z,99.90
2019-06-26T20:41:35.118Z,99.90
2019-06-26T20:44:03.807Z,99.90
2019-06-26T20:46:33.439Z,99.90
2019-06-26T20:49:02.034Z,99.90
2019-06-26T20:51:30.647Z,99.90
2019-06-26T20:53:59.221Z,99.90
2019-06-26T20:56:27.903Z,99.90
2019-06-26T20:58:56.499Z,99.90
2019-06-26T21:01:25.088Z,99.90
2019-06-26T21:03:53.641Z,99.90
2019-06-26T21:06:22.272Z,99.90
2019-06-26T21:08:51.091Z,99.90
2019-06-26T21:11:19.786Z,99.90
2019-06-26T21:13:48.346Z,99.90
2019-06-26T21:16:16.906Z,99.90
2019-06-26T21:18:45.470Z,99.90
2019-06-26T21:21:14.146Z,99.90
2019-06-26T21:23:42.694Z,99.90
2019-06-26T21:26:12.384Z,99.90
2019-06-26T21:28:41.138Z,99.90
2019-06-26T21:31:09.761Z,99.90
2019-06-26T21:33:39.860Z,99.90
2019-06-26T21:36:08.435Z,99.90
2019-06-26T21:38:37.119Z,99.90
2019-06-26T21:41:05.688Z,99.90
2019-06-26T21:43:34.499Z,99.90
2019-06-26T21:46:03.054Z,99.90
2019-06-26T21:48:31.577Z,99.90
2019-06-26T21:51:00.135Z,99.90
2019-06-26T21:53:30.275Z,99.90
2019-06-26T21:55:58.967Z,99.90
2019-06-26T21:58:27.477Z,99.90
2019-06-26T22:00:56.174Z,99.90
2019-06-26T22:03:24.818Z,99.90
2019-06-26T22:05:53.501Z,99.90
2019-06-26T22:08:22.343Z,99.90
2019-06-26T22:10:51.140Z,99.90
2019-06-26T22:13:19.774Z,99.90
2019-06-26T22:15:48.432Z,99.90
2019-06-26T22:18:17.022Z,99.90
2019-06-26T22:20:45.689Z,99.90
2019-06-26T22:23:14.554Z,99.90
2019-06-26T22:25:50.945Z,99.90
2019-06-26T22:28:13.707Z,99.90
2019-06-26T22:30:42.641Z,99.90
2019-06-26T22:33:11.236Z,99.90
2019-06-26T22:35:39.933Z,99.90
2019-06-26T22:38:08.700Z,99.90
2019-06-26T22:40:37.263Z,99.90
2019-06-26T22:43:05.841Z,99.90
2019-06-26T22:45:34.650Z,99.90
2019-06-26T22:48:03.331Z,99.90
2019-06-26T22:50:32.353Z,99.90
2019-06-26T22:53:01.024Z,99.90
2019-06-26T22:55:29.776Z,99.90
2019-06-26T22:57:58.377Z,99.90
2019-06-26T23:00:47.823Z,99.90
2019-06-26T23:03:16.632Z,99.90
2019-06-26T23:05:45.315Z,99.90
2019-06-26T23:08:13.897Z,99.90
2019-06-26T23:10:42.556Z,99.90
2019-06-26T23:13:11.147Z,99.90
2019-06-26T23:15:39.792Z,99.90
2019-06-26T23:18:08.453Z,99.90
2019-06-26T23:20:37.033Z,99.90
2019-06-26T23:23:06.138Z,99.90
2019-06-26T23:25:34.749Z,99.90
2019-06-26T23:28:03.472Z,99.90
2019-06-26T23:30:32.212Z,99.90
2019-06-26T23:33:00.837Z,99.90
2019-06-26T23:35:29.566Z,99.90
2019-06-26T23:37:58.291Z,99.90
2019-06-26T23:40:26.928Z,99.90
2019-06-26T23:42:55.533Z,99.90
2019-06-26T23:45:24.361Z,99.90
2019-06-26T23:47:52.940Z,99.90
2019-06-26T23:50:21.586Z,99.90
2019-06-26T23:52:50.336Z,99.90
2019-06-26T23:55:19.091Z,99.90
2019-06-26T23:57:58.471Z,99.90
